createdAt,value
2023-04-07T00:01:48.961Z,101212.88
2023-04-07T00:04:19.514Z,101208.97
2023-04-07T00:04:55.681Z,101055.38
2023-04-07T00:06:50.084Z,101208.25
2023-04-07T00:09:19.876Z,101204.13
2023-04-07T00:10:10.392Z,101051.06
2023-04-07T00:11:49.170Z,101208.97
2023-04-07T00:14:19.053Z,101208.25
2023-04-07T00:15:25.694Z,101055.38
2023-04-07T00:16:48.380Z,101205.59
2023-04-07T00:19:18.727Z,101212.88
2023-04-07T00:20:40.443Z,101062.19
2023-04-07T00:21:48.132Z,101218.22
2023-04-07T00:24:30.979Z,101215.53
2023-04-07T00:25:55.714Z,101064.22
2023-04-07T00:27:02.836Z,101218.22
2023-04-07T00:29:32.545Z,101222.13
2023-04-07T00:31:10.679Z,101069.78
2023-04-07T00:32:00.384Z,101223.53
2023-04-07T00:34:29.802Z,101223.53
2023-04-07T00:36:25.697Z,101066.78
2023-04-07T00:36:59.794Z,101220.88
2023-04-07T00:39:30.044Z,101224.78
2023-04-07T00:41:41.089Z,101064.72
2023-04-07T00:42:00.578Z,101218.22
2023-04-07T00:44:33.063Z,101216.78
2023-04-07T00:46:56.748Z,101075.59
2023-04-07T00:47:01.578Z,101217.47
2023-04-07T00:49:30.536Z,101221.38
2023-04-07T00:52:00.184Z,101223.53
2023-04-07T00:52:11.660Z,101074.81
2023-04-07T00:54:28.966Z,101227.44
2023-04-07T00:56:58.378Z,101222.13
2023-04-07T00:57:26.443Z,101079.63
2023-04-07T00:59:27.433Z,101226.00
2023-04-07T01:01:57.073Z,101228.16
2023-04-07T01:02:42.136Z,101075.34
2023-04-07T01:04:27.386Z,101227.44
2023-04-07T01:06:58.072Z,101230.13
2023-04-07T01:07:57.704Z,101073.59
2023-04-07T01:09:34.220Z,101227.44
2023-04-07T01:12:06.830Z,101226.00
2023-04-07T01:13:12.680Z,101072.84
2023-04-07T01:14:35.992Z,101217.97
2023-04-07T01:17:17.294Z,101221.38
2023-04-07T01:18:27.625Z,101068.78
2023-04-07T01:19:46.399Z,101223.31
2023-04-07T01:22:15.371Z,101222.13
2023-04-07T01:23:43.633Z,101058.94
2023-04-07T01:24:45.701Z,101212.63
2023-04-07T01:27:15.526Z,101215.31
2023-04-07T01:28:58.695Z,101067.28
2023-04-07T01:29:45.062Z,101226.00
2023-04-07T01:32:15.139Z,101225.25
2023-04-07T01:34:14.985Z,101075.59
2023-04-07T01:34:45.487Z,101230.59
2023-04-07T01:37:15.476Z,101220.66
2023-04-07T01:39:30.951Z,101084.22
2023-04-07T01:39:45.457Z,101229.94
2023-04-07T01:42:15.334Z,101231.31
2023-04-07T01:44:44.995Z,101229.38
2023-04-07T01:44:46.981Z,101079.41
2023-04-07T01:47:13.685Z,101229.94
2023-04-07T01:49:43.054Z,101232.59
2023-04-07T01:50:02.642Z,101076.63
2023-04-07T01:52:12.009Z,101231.31
2023-04-07T01:54:41.997Z,101233.81
2023-04-07T01:55:17.643Z,101080.88
2023-04-07T01:57:11.894Z,101231.88
2023-04-07T01:59:44.526Z,101229.94
2023-04-07T02:00:42.771Z,101077.88
2023-04-07T02:02:15.594Z,101229.50
2023-04-07T02:04:45.712Z,101229.94
2023-04-07T02:06:00.735Z,101088.72
2023-04-07T02:07:16.581Z,101232.59
2023-04-07T02:09:49.794Z,101238.59
2023-04-07T02:11:15.732Z,101081.16
2023-04-07T02:12:19.269Z,101229.94
2023-04-07T02:15:02.602Z,101231.31
2023-04-07T02:16:33.694Z,101087.97
2023-04-07T02:17:30.970Z,101232.59
2023-04-07T02:20:01.044Z,101233.81
2023-04-07T02:21:48.692Z,101086.44
2023-04-07T02:22:31.303Z,101231.88
2023-04-07T02:25:00.243Z,101233.81
2023-04-07T02:27:03.444Z,101091.25
2023-04-07T02:27:30.508Z,101239.88
2023-04-07T02:30:00.405Z,101233.81
2023-04-07T02:32:18.701Z,101080.66
2023-04-07T02:32:30.763Z,101233.06
2023-04-07T02:35:00.967Z,101234.53
2023-04-07T02:37:30.580Z,101228.47
2023-04-07T02:37:33.659Z,101083.44
2023-04-07T02:40:00.432Z,101237.72
2023-04-07T02:42:30.308Z,101239.16
2023-04-07T02:42:48.659Z,101080.66
2023-04-07T02:45:00.758Z,101234.84
2023-04-07T02:47:31.745Z,101232.38
2023-04-07T02:48:04.701Z,101082.91
2023-04-07T02:50:01.167Z,101237.72
2023-04-07T02:52:34.917Z,101236.25
2023-04-07T02:53:19.938Z,101091.25
2023-04-07T02:55:06.410Z,101236.97
2023-04-07T02:57:36.636Z,101236.25
2023-04-07T02:58:35.974Z,101088.47
2023-04-07T03:00:09.221Z,101242.31
2023-04-07T03:02:54.308Z,101237.72
2023-04-07T03:03:53.161Z,101081.66
2023-04-07T03:05:22.356Z,101238.91
2023-04-07T03:07:50.726Z,101238.91
2023-04-07T03:09:08.486Z,101087.97
2023-04-07T03:10:25.566Z,101236.25
2023-04-07T03:12:55.643Z,101238.91
2023-04-07T03:14:23.654Z,101085.19
2023-04-07T03:15:25.218Z,101240.19
2023-04-07T03:17:54.883Z,101241.59
2023-04-07T03:19:39.130Z,101098.56
2023-04-07T03:20:23.635Z,101249.09
2023-04-07T03:22:54.398Z,101253.94
2023-04-07T03:24:54.673Z,101093.28
2023-04-07T03:25:27.525Z,101242.72
2023-04-07T03:27:57.163Z,101250.25
2023-04-07T03:30:09.659Z,101091.19
2023-04-07T03:30:31.337Z,101247.75
2023-04-07T03:33:00.840Z,101246.78
2023-04-07T03:35:26.650Z,101096.00
2023-04-07T03:35:32.194Z,101253.53
2023-04-07T03:38:02.469Z,101251.06
2023-04-07T03:40:32.385Z,101253.94
2023-04-07T03:40:41.670Z,101100.81
2023-04-07T03:43:01.816Z,101245.44
2023-04-07T03:45:31.374Z,101252.22
2023-04-07T03:45:56.816Z,101105.06
2023-04-07T03:48:01.346Z,101250.47
2023-04-07T03:50:31.832Z,101248.03
2023-04-07T03:51:12.638Z,101101.78
2023-04-07T03:53:13.858Z,101250.88
2023-04-07T03:55:51.714Z,101252.53
2023-04-07T03:56:29.705Z,101100.06
2023-04-07T03:58:40.513Z,101252.03
2023-04-07T04:01:15.021Z,101254.38
2023-04-07T04:01:52.767Z,101098.25
2023-04-07T04:03:46.887Z,101254.59
2023-04-07T04:06:24.870Z,101258.19
2023-04-07T04:07:08.688Z,101107.63
2023-04-07T04:08:56.703Z,101256.44
2023-04-07T04:11:27.870Z,101250.09
2023-04-07T04:12:31.010Z,101097.78
2023-04-07T04:14:01.835Z,101258.28
2023-04-07T04:16:33.475Z,101259.75
2023-04-07T04:17:50.723Z,101101.81
2023-04-07T04:19:09.289Z,101265.28
2023-04-07T04:21:38.934Z,101263.34
2023-04-07T04:23:06.680Z,101108.66
2023-04-07T04:24:08.476Z,101262.63
2023-04-07T04:26:38.578Z,101270.13
2023-04-07T04:28:22.775Z,101114.72
2023-04-07T04:29:12.755Z,101258.69
2023-04-07T04:31:43.814Z,101273.31
2023-04-07T04:33:37.702Z,101122.81
2023-04-07T04:34:14.000Z,101271.88
2023-04-07T04:36:44.425Z,101271.88
2023-04-07T04:38:52.682Z,101129.41
2023-04-07T04:39:15.110Z,101271.88
2023-04-07T04:41:44.530Z,101281.13
2023-04-07T04:44:07.931Z,101127.88
2023-04-07T04:44:13.431Z,101279.66
2023-04-07T04:46:43.279Z,101281.13
2023-04-07T04:49:13.033Z,101280.38
2023-04-07T04:49:24.703Z,101131.69
2023-04-07T04:51:41.837Z,101285.72
2023-04-07T04:54:17.082Z,101279.66
2023-04-07T04:54:42.673Z,101132.19
2023-04-07T04:56:47.185Z,101290.34
2023-04-07T04:59:17.560Z,101290.34
2023-04-07T04:59:58.654Z,101137.00
2023-04-07T05:01:59.155Z,101296.94
2023-04-07T05:04:29.225Z,101292.81
2023-04-07T05:05:13.491Z,101140.25
2023-04-07T05:07:04.193Z,101298.16
2023-04-07T05:09:33.608Z,101293.56
2023-04-07T05:10:30.649Z,101149.13
2023-04-07T05:12:02.541Z,101304.25
2023-04-07T05:14:37.736Z,101299.59
2023-04-07T05:15:45.718Z,101144.81
2023-04-07T05:17:09.617Z,101299.59
2023-04-07T05:19:40.201Z,101306.38
2023-04-07T05:21:00.676Z,101145.59
2023-04-07T05:22:16.303Z,101299.59
2023-04-07T05:24:48.817Z,101310.28
2023-04-07T05:26:17.999Z,101154.44
2023-04-07T05:27:19.364Z,101308.84
2023-04-07T05:29:53.154Z,101318.28
2023-04-07T05:31:33.751Z,101159.47
2023-04-07T05:32:27.423Z,101310.97
2023-04-07T05:34:58.832Z,101311.53
2023-04-07T05:36:53.074Z,101158.22
2023-04-07T05:37:32.378Z,101314.94
2023-04-07T05:40:05.377Z,101308.84
2023-04-07T05:42:08.671Z,101160.75
2023-04-07T05:42:35.374Z,101316.88
2023-04-07T05:45:05.024Z,101314.19
2023-04-07T05:47:26.689Z,101161.50
2023-04-07T05:47:35.226Z,101324.88
2023-04-07T05:50:05.437Z,101324.34
2023-04-07T05:52:35.798Z,101322.41
2023-04-07T05:52:42.477Z,101168.56
2023-04-07T05:55:15.441Z,101322.19
2023-04-07T05:57:44.416Z,101331.66
2023-04-07T05:58:03.733Z,101175.41
2023-04-07T06:00:16.337Z,101327.00
2023-04-07T06:02:51.186Z,101334.31
2023-04-07T06:03:20.785Z,101178.97
2023-04-07T06:05:21.628Z,101333.09
2023-04-07T06:07:54.367Z,101336.50
2023-04-07T06:08:41.714Z,101185.50
2023-04-07T06:10:25.386Z,101334.53
2023-04-07T06:12:54.188Z,101341.31
2023-04-07T06:13:57.006Z,101192.34
2023-04-07T06:15:23.576Z,101343.47
2023-04-07T06:17:52.691Z,101342.97
2023-04-07T06:19:12.460Z,101192.84
2023-04-07T06:20:21.766Z,101339.06
2023-04-07T06:22:53.425Z,101341.94
2023-04-07T06:24:27.716Z,101188.03
2023-04-07T06:25:23.782Z,101342.88
2023-04-07T06:27:54.279Z,101348.94
2023-04-07T06:29:44.959Z,101195.84
2023-04-07T06:30:24.288Z,101347.91
2023-04-07T06:32:54.667Z,101348.31
2023-04-07T06:35:01.665Z,101191.31
2023-04-07T06:35:25.383Z,101352.84
2023-04-07T06:37:54.115Z,101351.63
2023-04-07T06:40:17.030Z,101193.34
2023-04-07T06:40:24.095Z,101349.19
2023-04-07T06:42:52.779Z,101358.59
2023-04-07T06:45:30.857Z,101362.41
2023-04-07T06:45:32.725Z,101205.00
2023-04-07T06:48:01.136Z,101351.41
2023-04-07T06:50:31.119Z,101362.31
2023-04-07T06:50:47.758Z,101208.75
2023-04-07T06:53:01.571Z,101362.09
2023-04-07T06:55:31.763Z,101367.84
2023-04-07T06:56:02.477Z,101205.00
2023-04-07T06:58:00.527Z,101373.75
2023-04-07T07:00:30.863Z,101374.25
2023-04-07T07:01:17.771Z,101219.38
2023-04-07T07:03:01.058Z,101376.72
2023-04-07T07:05:30.849Z,101380.63
2023-04-07T07:06:32.662Z,101221.16
2023-04-07T07:07:59.700Z,101384.53
2023-04-07T07:10:30.019Z,101384.94
2023-04-07T07:11:47.479Z,101224.19
2023-04-07T07:13:00.310Z,101385.66
2023-04-07T07:15:30.561Z,101387.63
2023-04-07T07:17:02.717Z,101230.25
2023-04-07T07:18:00.933Z,101392.97
2023-04-07T07:20:31.278Z,101392.22
2023-04-07T07:22:17.991Z,101235.03
2023-04-07T07:23:01.538Z,101393.19
2023-04-07T07:25:31.818Z,101390.28
2023-04-07T07:27:33.476Z,101236.34
2023-04-07T07:28:02.123Z,101390.50
2023-04-07T07:30:32.247Z,101396.06
2023-04-07T07:32:48.748Z,101239.13
2023-04-07T07:33:01.056Z,101394.59
2023-04-07T07:35:31.365Z,101394.81
2023-04-07T07:38:01.898Z,101400.34
2023-04-07T07:38:03.919Z,101242.38
2023-04-07T07:40:32.263Z,101404.47
2023-04-07T07:43:02.670Z,101405.91
2023-04-07T07:43:19.062Z,101249.47
2023-04-07T07:45:32.071Z,101402.03
2023-04-07T07:48:02.010Z,101406.13
2023-04-07T07:48:34.775Z,101252.50
2023-04-07T07:50:34.805Z,101415.78
2023-04-07T07:53:03.044Z,101409.19
2023-04-07T07:53:50.038Z,101258.03
2023-04-07T07:55:33.096Z,101420.13
2023-04-07T07:58:05.399Z,101416.19
2023-04-07T07:59:05.679Z,101266.88
2023-04-07T08:00:34.826Z,101415.50
2023-04-07T08:03:03.836Z,101429.38
2023-04-07T08:04:20.776Z,101268.66
2023-04-07T08:05:33.030Z,101421.13
2023-04-07T08:08:01.354Z,101430.59
2023-04-07T08:09:36.015Z,101272.94
2023-04-07T08:10:31.183Z,101434.50
2023-04-07T08:13:00.068Z,101431.13
2023-04-07T08:14:51.933Z,101275.47
2023-04-07T08:15:29.071Z,101433.25
2023-04-07T08:17:58.382Z,101434.41
2023-04-07T08:20:07.694Z,101270.41
2023-04-07T08:20:28.778Z,101439.88
2023-04-07T08:22:59.197Z,101442.78
2023-04-07T08:25:22.480Z,101282.53
2023-04-07T08:25:28.697Z,101445.44
2023-04-07T08:27:58.184Z,101443.75
2023-04-07T08:30:27.075Z,101441.31
2023-04-07T08:30:37.752Z,101282.78
2023-04-07T08:32:55.484Z,101455.91
2023-04-07T08:35:24.920Z,101454.47
2023-04-07T08:35:53.031Z,101294.88
2023-04-07T08:37:54.474Z,101462.28
2023-04-07T08:40:24.816Z,101460.03
2023-04-07T08:41:08.966Z,101298.16
2023-04-07T08:42:55.180Z,101457.75
2023-04-07T08:45:24.989Z,101452.81
2023-04-07T08:46:24.581Z,101312.56
2023-04-07T08:47:54.814Z,101462.09
2023-04-07T08:50:24.572Z,101471.31
2023-04-07T08:51:39.669Z,101311.03
2023-04-07T08:52:54.587Z,101471.75
2023-04-07T08:55:23.436Z,101477.09
2023-04-07T08:56:54.664Z,101313.28
2023-04-07T08:57:53.786Z,101471.75
2023-04-07T09:00:24.154Z,101469.28
2023-04-07T09:02:09.763Z,101321.63
2023-04-07T09:02:54.579Z,101477.31
2023-04-07T09:05:24.946Z,101472.69
2023-04-07T09:07:24.694Z,101314.53
2023-04-07T09:07:55.305Z,101474.63
2023-04-07T09:10:25.236Z,101474.63
2023-04-07T09:12:39.674Z,101317.84
2023-04-07T09:12:55.488Z,101482.84
2023-04-07T09:15:25.842Z,101480.72
2023-04-07T09:17:54.699Z,101326.94
2023-04-07T09:17:56.243Z,101480.00
2023-04-07T09:20:26.124Z,101477.09
2023-04-07T09:22:55.520Z,101483.72
2023-04-07T09:23:10.023Z,101332.50
2023-04-07T09:25:25.919Z,101492.00
2023-04-07T09:27:55.376Z,101487.38
2023-04-07T09:28:26.754Z,101332.19
2023-04-07T09:30:25.370Z,101491.31
2023-04-07T09:32:54.207Z,101493.78
2023-04-07T09:33:41.694Z,101335.75
2023-04-07T09:35:24.460Z,101490.91
2023-04-07T09:37:54.823Z,101488.41
2023-04-07T09:38:56.703Z,101331.97
2023-04-07T09:40:24.743Z,101492.00
2023-04-07T09:42:54.018Z,101502.44
2023-04-07T09:44:11.740Z,101339.53
2023-04-07T09:45:31.448Z,101490.69
2023-04-07T09:48:03.535Z,101504.25
2023-04-07T09:49:26.693Z,101342.31
2023-04-07T09:50:33.364Z,101500.38
2023-04-07T09:53:02.817Z,101502.84
2023-04-07T09:54:41.776Z,101351.91
2023-04-07T09:55:33.036Z,101504.25
2023-04-07T09:58:03.371Z,101509.81
2023-04-07T09:59:56.670Z,101345.59
2023-04-07T10:00:33.738Z,101512.91
2023-04-07T10:03:03.869Z,101504.38
2023-04-07T10:05:21.675Z,101346.34
2023-04-07T10:05:32.721Z,101497.28
2023-04-07T10:08:03.022Z,101505.50
2023-04-07T10:10:32.967Z,101504.06
2023-04-07T10:10:36.881Z,101353.91
2023-04-07T10:13:02.271Z,101508.91
2023-04-07T10:15:32.268Z,101505.50
2023-04-07T10:15:51.717Z,101352.91
2023-04-07T10:18:01.723Z,101512.31
2023-04-07T10:20:31.753Z,101519.81
2023-04-07T10:21:06.749Z,101353.38
2023-04-07T10:23:01.124Z,101516.19
2023-04-07T10:25:31.364Z,101520.13
2023-04-07T10:26:22.060Z,101357.41
2023-04-07T10:28:01.756Z,101517.25
2023-04-07T10:30:31.334Z,101524.75
2023-04-07T10:31:37.844Z,101361.72
2023-04-07T10:33:01.668Z,101517.97
2023-04-07T10:35:31.699Z,101527.94
2023-04-07T10:36:52.689Z,101362.25
2023-04-07T10:38:00.456Z,101531.34
2023-04-07T10:40:30.594Z,101526.47
2023-04-07T10:42:08.076Z,101370.56
2023-04-07T10:42:58.817Z,101526.47
2023-04-07T10:45:28.131Z,101529.69
2023-04-07T10:47:24.012Z,101374.59
2023-04-07T10:47:58.339Z,101532.16
2023-04-07T10:50:26.867Z,101535.34
2023-04-07T10:52:39.716Z,101383.69
2023-04-07T10:52:55.067Z,101540.72
2023-04-07T10:55:28.175Z,101531.72
2023-04-07T10:57:54.756Z,101390.50
2023-04-07T10:57:58.572Z,101544.19
2023-04-07T11:00:28.973Z,101549.84
2023-04-07T11:02:58.493Z,101547.69
2023-04-07T11:03:10.964Z,101392.53
2023-04-07T11:05:31.585Z,101545.78
2023-04-07T11:08:02.012Z,101550.22
2023-04-07T11:08:26.722Z,101396.56
2023-04-07T11:10:31.965Z,101549.31
2023-04-07T11:13:00.690Z,101558.53
2023-04-07T11:13:41.784Z,101400.63
2023-04-07T11:15:30.943Z,101551.75
2023-04-07T11:18:01.349Z,101558.53
2023-04-07T11:18:56.724Z,101401.34
2023-04-07T11:20:31.758Z,101557.81
2023-04-07T11:23:02.194Z,101553.19
2023-04-07T11:24:11.795Z,101401.84
2023-04-07T11:25:32.514Z,101561.00
2023-04-07T11:28:02.874Z,101557.09
2023-04-07T11:29:26.666Z,101406.16
2023-04-07T11:30:33.134Z,101560.28
2023-04-07T11:33:03.487Z,101561.00
2023-04-07T11:34:41.714Z,101401.34
2023-04-07T11:35:34.182Z,101555.66
2023-04-07T11:38:04.600Z,101558.84
2023-04-07T11:39:57.065Z,101411.72
2023-04-07T11:40:33.559Z,101565.41
2023-04-07T11:43:02.439Z,101562.00
2023-04-07T11:45:12.832Z,101407.88
2023-04-07T11:45:31.594Z,101565.22
2023-04-07T11:48:00.402Z,101564.47
2023-04-07T11:50:27.701Z,101409.91
2023-04-07T11:50:30.305Z,101565.91
2023-04-07T11:53:00.589Z,101559.13
2023-04-07T11:55:31.191Z,101576.63
2023-04-07T11:55:42.980Z,101421.53
2023-04-07T11:58:00.077Z,101573.22
2023-04-07T12:00:29.533Z,101569.84
2023-04-07T12:00:58.757Z,101425.03
2023-04-07T12:02:59.955Z,101575.19
2023-04-07T12:05:29.970Z,101579.81
2023-04-07T12:06:13.665Z,101425.03
2023-04-07T12:07:59.308Z,101585.88
2023-04-07T12:10:29.781Z,101585.88
2023-04-07T12:11:28.748Z,101432.63
2023-04-07T12:13:02.270Z,101588.53
2023-04-07T12:15:31.803Z,101598.00
2023-04-07T12:16:44.806Z,101445.75
2023-04-07T12:18:01.403Z,101591.22
2023-04-07T12:20:31.299Z,101600.47
2023-04-07T12:22:00.720Z,101445.75
2023-04-07T12:23:00.326Z,101602.41
2023-04-07T12:25:29.094Z,101604.38
2023-04-07T12:27:15.469Z,101451.81
2023-04-07T12:27:59.430Z,101604.16
2023-04-07T12:30:29.737Z,101610.75
2023-04-07T12:32:30.764Z,101455.81
2023-04-07T12:33:00.088Z,101607.88
2023-04-07T12:35:30.089Z,101613.22
2023-04-07T12:37:45.733Z,101454.59
2023-04-07T12:38:00.402Z,101611.06
2023-04-07T12:40:30.204Z,101606.41
2023-04-07T12:42:59.700Z,101611.75
2023-04-07T12:43:00.762Z,101455.81
2023-04-07T12:45:30.342Z,101617.09
2023-04-07T12:48:00.228Z,101622.44
2023-04-07T12:48:15.733Z,101463.38
2023-04-07T12:50:28.886Z,101617.84
2023-04-07T12:52:58.734Z,101618.56
2023-04-07T12:53:30.720Z,101463.38
2023-04-07T12:55:31.729Z,101634.63
2023-04-07T12:58:01.896Z,101625.31
2023-04-07T12:58:45.703Z,101468.19
2023-04-07T13:00:30.665Z,101626.78
2023-04-07T13:02:59.898Z,101627.53
2023-04-07T13:04:00.901Z,101475.00
2023-04-07T13:05:28.278Z,101632.13
2023-04-07T13:07:58.806Z,101631.41
2023-04-07T13:09:15.773Z,101484.88
2023-04-07T13:10:28.706Z,101625.31
2023-04-07T13:13:01.722Z,101632.13
2023-04-07T13:14:30.701Z,101473.00
2023-04-07T13:15:32.084Z,101630.66
2023-04-07T13:18:02.556Z,101631.94
2023-04-07T13:19:46.056Z,101483.34
2023-04-07T13:20:32.979Z,101629.75
2023-04-07T13:23:08.397Z,101638.50
2023-04-07T13:25:02.074Z,101480.56
2023-04-07T13:25:40.488Z,101630.47
2023-04-07T13:28:10.727Z,101630.66
2023-04-07T13:30:17.785Z,101479.31
2023-04-07T13:30:40.655Z,101636.25
2023-04-07T13:33:09.754Z,101634.50
2023-04-07T13:35:32.842Z,101477.25
2023-04-07T13:35:39.029Z,101635.66
2023-04-07T13:38:07.950Z,101631.97
2023-04-07T13:40:37.728Z,101631.16
2023-04-07T13:40:48.126Z,101478.78
2023-04-07T13:43:07.049Z,101639.63
2023-04-07T13:45:37.339Z,101638.59
2023-04-07T13:48:07.779Z,101639.31
2023-04-07T13:50:37.635Z,101637.56
2023-04-07T13:51:20.682Z,101484.34
2023-04-07T13:53:07.911Z,101642.91
2023-04-07T13:55:38.255Z,101640.47
2023-04-07T13:56:35.897Z,101481.31
2023-04-07T13:58:08.329Z,101641.94
2023-04-07T14:00:41.197Z,101636.59
2023-04-07T14:01:50.832Z,101490.91
2023-04-07T14:03:11.732Z,101635.84
2023-04-07T14:05:42.249Z,101638.53
2023-04-07T14:07:05.485Z,101484.59
2023-04-07T14:08:11.764Z,101639.03
2023-04-07T14:10:40.294Z,101645.81
2023-04-07T14:12:20.679Z,101481.06
2023-04-07T14:13:08.783Z,101645.81
2023-04-07T14:15:37.524Z,101643.13
2023-04-07T14:17:35.744Z,101490.91
2023-04-07T14:18:07.896Z,101645.81
2023-04-07T14:20:37.861Z,101643.66
2023-04-07T14:22:50.700Z,101492.91
2023-04-07T14:23:07.954Z,101649.53
2023-04-07T14:25:40.487Z,101649.31
2023-04-07T14:28:05.774Z,101492.91
2023-04-07T14:28:10.385Z,101652.44
2023-04-07T14:30:39.330Z,101645.47
2023-04-07T14:33:08.869Z,101647.41
2023-04-07T14:33:20.759Z,101496.19
2023-04-07T14:35:39.259Z,101652.56
2023-04-07T14:38:09.492Z,101652.34
2023-04-07T14:38:35.467Z,101501.00
2023-04-07T14:40:38.186Z,101650.19
2023-04-07T14:43:08.494Z,101648.03
2023-04-07T14:43:52.332Z,101494.38
2023-04-07T14:45:38.815Z,101649.22
2023-04-07T14:48:09.121Z,101654.38
2023-04-07T14:49:08.732Z,101501.47
2023-04-07T14:50:39.431Z,101652.91
2023-04-07T14:53:09.926Z,101655.38
2023-04-07T14:54:23.778Z,101506.25
2023-04-07T14:55:39.082Z,101655.38
2023-04-07T14:58:07.867Z,101655.38
2023-04-07T15:00:15.698Z,101513.06
2023-04-07T15:00:38.173Z,101658.06
2023-04-07T15:03:08.465Z,101650.78
2023-04-07T15:05:30.734Z,101509.53
2023-04-07T15:05:37.481Z,101656.81
2023-04-07T15:08:07.842Z,101668.75
2023-04-07T15:10:38.364Z,101664.66
2023-04-07T15:10:45.445Z,101514.34
2023-04-07T15:13:07.791Z,101667.31
2023-04-07T15:15:37.601Z,101664.66
2023-04-07T15:16:00.753Z,101522.16
2023-04-07T15:18:06.971Z,101672.44
2023-04-07T15:20:37.288Z,101672.25
2023-04-07T15:21:15.728Z,101525.94
2023-04-07T15:23:07.562Z,101678.78
2023-04-07T15:25:37.883Z,101681.25
2023-04-07T15:26:30.738Z,101527.94
2023-04-07T15:28:08.266Z,101679.84
2023-04-07T15:30:38.631Z,101682.28
2023-04-07T15:31:45.815Z,101527.94
2023-04-07T15:33:09.102Z,101683.50
2023-04-07T15:35:39.286Z,101680.59
2023-04-07T15:37:02.785Z,101530.72
2023-04-07T15:38:07.983Z,101672.59
2023-04-07T15:40:37.386Z,101681.88
2023-04-07T15:42:19.498Z,101527.94
2023-04-07T15:43:06.764Z,101676.53
2023-04-07T15:45:35.726Z,101680.41
2023-04-07T15:47:34.777Z,101531.22
2023-04-07T15:48:04.366Z,101678.97
2023-04-07T15:50:33.135Z,101680.16
2023-04-07T15:52:49.787Z,101531.22
2023-04-07T15:53:03.061Z,101682.13
2023-04-07T15:55:33.593Z,101686.78
2023-04-07T15:58:03.088Z,101697.94
2023-04-07T15:58:04.768Z,101543.09
2023-04-07T16:00:32.429Z,101689.22
2023-04-07T16:03:02.954Z,101697.03
2023-04-07T16:03:19.831Z,101543.09
2023-04-07T16:05:33.425Z,101693.41
2023-04-07T16:08:03.777Z,101696.59
2023-04-07T16:08:34.748Z,101552.69
2023-04-07T16:10:34.030Z,101699.03
2023-04-07T16:13:04.385Z,101699.03
2023-04-07T16:13:50.034Z,101551.41
2023-04-07T16:15:40.878Z,101698.31
2023-04-07T16:18:12.104Z,101696.16
2023-04-07T16:19:05.813Z,101541.28
2023-04-07T16:20:42.568Z,101695.44
2023-04-07T16:23:12.970Z,101707.31
2023-04-07T16:24:20.731Z,101553.44
2023-04-07T16:25:43.526Z,101705.38
2023-04-07T16:28:12.951Z,101703.94
2023-04-07T16:29:35.744Z,101562.25
2023-04-07T16:30:44.238Z,101707.81
2023-04-07T16:33:13.810Z,101711.97
2023-04-07T16:34:51.171Z,101566.56
2023-04-07T16:35:42.174Z,101713.16
2023-04-07T16:38:15.272Z,101717.06
2023-04-07T16:40:06.760Z,101567.78
2023-04-07T16:40:56.816Z,101720.97
2023-04-07T16:43:36.851Z,101726.34
2023-04-07T16:45:21.772Z,101572.13
2023-04-07T16:46:07.347Z,101730.22
2023-04-07T16:48:36.829Z,101723.44
2023-04-07T16:50:36.803Z,101579.66
2023-04-07T16:51:07.172Z,101727.34
2023-04-07T16:53:37.059Z,101725.88
2023-04-07T16:55:51.741Z,101581.19
2023-04-07T16:56:07.410Z,101731.22
2023-04-07T16:58:37.734Z,101725.66
2023-04-07T17:01:06.802Z,101580.47
2023-04-07T17:01:07.773Z,101739.03
2023-04-07T17:03:36.720Z,101730.78
2023-04-07T17:06:07.150Z,101734.66
2023-04-07T17:06:21.766Z,101584.72
2023-04-07T17:08:37.537Z,101744.66
2023-04-07T17:11:07.402Z,101738.56
2023-04-07T17:11:37.097Z,101590.78
2023-04-07T17:13:36.841Z,101745.88
2023-04-07T17:16:06.975Z,101751.72
2023-04-07T17:16:52.760Z,101596.31
2023-04-07T17:18:35.683Z,101752.94
2023-04-07T17:21:05.977Z,101755.59
2023-04-07T17:22:07.798Z,101595.56
2023-04-07T17:23:35.632Z,101754.91
2023-04-07T17:26:03.804Z,101763.41
2023-04-07T17:27:22.766Z,101610.22
2023-04-07T17:28:33.094Z,101763.41
2023-04-07T17:31:03.354Z,101770.72
2023-04-07T17:32:37.789Z,101615.00
2023-04-07T17:33:33.776Z,101772.66
2023-04-07T17:36:04.078Z,101771.19
2023-04-07T17:37:52.739Z,101620.56
2023-04-07T17:38:33.944Z,101779.22
2023-04-07T17:41:04.070Z,101775.09
2023-04-07T17:43:08.075Z,101625.34
2023-04-07T17:43:34.409Z,101781.88
2023-04-07T17:46:04.683Z,101791.13
2023-04-07T17:48:24.033Z,101636.44
2023-04-07T17:48:34.974Z,101789.69
2023-04-07T17:51:06.067Z,101793.59
2023-04-07T17:53:36.117Z,101792.84
2023-04-07T17:53:39.824Z,101641.22
2023-04-07T17:56:04.169Z,101795.31
2023-04-07T17:58:32.804Z,101801.16
2023-04-07T17:58:54.687Z,101647.56
2023-04-07T18:01:02.714Z,101805.25
2023-04-07T18:03:32.040Z,101805.03
2023-04-07T18:04:09.795Z,101654.63
2023-04-07T18:06:01.663Z,101816.94
2023-04-07T18:08:31.152Z,101816.94
2023-04-07T18:09:24.514Z,101661.44
2023-04-07T18:11:01.058Z,101815.50
2023-04-07T18:13:30.014Z,101823.28
2023-04-07T18:14:40.059Z,101669.31
2023-04-07T18:15:59.075Z,101823.28
2023-04-07T18:18:28.140Z,101827.16
2023-04-07T18:19:55.753Z,101671.28
2023-04-07T18:20:57.436Z,101825.72
2023-04-07T18:23:28.023Z,101833.75
2023-04-07T18:25:10.538Z,101678.09
2023-04-07T18:25:57.643Z,101829.84
2023-04-07T18:28:27.977Z,101829.63
2023-04-07T18:30:26.090Z,101678.84
2023-04-07T18:30:58.718Z,101828.16
2023-04-07T18:33:27.916Z,101833.50
2023-04-07T18:35:41.790Z,101685.97
2023-04-07T18:35:56.754Z,101833.50
2023-04-07T18:38:28.079Z,101830.09
2023-04-07T18:40:56.737Z,101681.63
2023-04-07T18:40:58.254Z,101826.00
2023-04-07T18:43:28.031Z,101838.63
2023-04-07T18:45:57.313Z,101841.31
2023-04-07T18:46:12.116Z,101683.19
2023-04-07T18:48:27.651Z,101841.31
2023-04-07T18:50:58.055Z,101839.84
2023-04-07T18:51:27.707Z,101688.75
2023-04-07T18:53:28.444Z,101850.53
2023-04-07T18:55:58.805Z,101855.88
2023-04-07T18:56:43.090Z,101705.41
2023-04-07T18:58:29.190Z,101854.41
2023-04-07T19:00:59.573Z,101859.75
2023-04-07T19:01:58.578Z,101715.25
2023-04-07T19:03:29.501Z,101867.78
2023-04-07T19:06:02.822Z,101875.78
2023-04-07T19:07:13.832Z,101723.56
2023-04-07T19:08:33.581Z,101879.66
2023-04-07T19:11:03.872Z,101879.66
2023-04-07T19:12:28.721Z,101731.13
2023-04-07T19:13:34.150Z,101885.00
2023-04-07T19:16:04.611Z,101890.34
2023-04-07T19:17:43.793Z,101738.72
2023-04-07T19:18:35.066Z,101885.00
2023-04-07T19:21:05.117Z,101885.00
2023-04-07T19:22:58.711Z,101734.66
2023-04-07T19:23:32.985Z,101888.94
2023-04-07T19:26:01.220Z,101898.13